createdAt,value
2018-03-30T00:00:58.916Z,81.63
2018-03-30T00:01:58.905Z,81.25
2018-03-30T00:02:58.893Z,81.92
2018-03-30T00:03:58.884Z,81.92
2018-03-30T00:04:58.868Z,81.92
2018-03-30T00:05:58.855Z,81.92
2018-03-30T00:06:58.845Z,81.44
2018-03-30T00:07:58.831Z,82.01
2018-03-30T00:08:58.824Z,81.44
2018-03-30T00:09:58.811Z,81.25
2018-03-30T00:10:58.802Z,81.34
2018-03-30T00:11:58.788Z,81.34
2018-03-30T00:12:58.782Z,81.25
2018-03-30T00:13:58.763Z,81.25
2018-03-30T00:14:58.754Z,81.44
2018-03-30T00:15:58.740Z,81.44
2018-03-30T00:16:58.730Z,81.15
2018-03-30T00:17:58.714Z,80.77
2018-03-30T00:18:58.704Z,81.15
2018-03-30T00:19:58.691Z,81.06
2018-03-30T00:20:58.684Z,80.58
2018-03-30T00:21:58.675Z,81.15
2018-03-30T00:22:58.657Z,81.15
2018-03-30T00:23:58.644Z,80.77
2018-03-30T00:24:58.639Z,80.49
2018-03-30T00:25:58.618Z,80.87
2018-03-30T00:26:58.608Z,81.06
2018-03-30T00:27:58.599Z,81.25
2018-03-30T00:28:58.588Z,80.68
2018-03-30T00:29:58.580Z,80.96
2018-03-30T00:30:58.563Z,80.96
2018-03-30T00:31:58.547Z,81.15
2018-03-30T00:32:58.536Z,80.77
2018-03-30T00:33:58.529Z,80.68
2018-03-30T00:34:58.514Z,80.87
2018-03-30T00:35:58.499Z,80.96
2018-03-30T00:36:58.495Z,81.25
2018-03-30T00:37:58.479Z,81.15
2018-03-30T00:38:58.466Z,80.58
2018-03-30T00:39:58.455Z,80.68
2018-03-30T00:40:58.439Z,80.77
2018-03-30T00:41:58.434Z,80.96
2018-03-30T00:42:58.421Z,80.77
2018-03-30T00:43:58.405Z,80.77
2018-03-30T00:44:58.395Z,80.77
2018-03-30T00:45:58.382Z,80.77
2018-03-30T00:46:58.373Z,80.21
2018-03-30T00:47:58.362Z,79.93
2018-03-30T00:48:58.348Z,80.30
2018-03-30T00:49:58.335Z,80.49
2018-03-30T00:50:58.329Z,80.40
2018-03-30T00:51:58.311Z,80.30
2018-03-30T00:52:58.296Z,80.11
2018-03-30T00:53:58.288Z,80.11
2018-03-30T00:54:58.275Z,80.26
2018-03-30T00:55:58.275Z,80.21
2018-03-30T00:56:58.256Z,80.58
2018-03-30T00:57:58.243Z,80.49
2018-03-30T00:58:58.226Z,80.30
2018-03-30T00:59:58.215Z,80.58
2018-03-30T01:00:58.207Z,80.68
2018-03-30T01:01:58.193Z,80.58
2018-03-30T01:02:58.182Z,80.87
2018-03-30T01:03:58.171Z,80.87
2018-03-30T01:04:58.157Z,80.77
2018-03-30T01:05:58.142Z,80.74
2018-03-30T01:06:58.129Z,80.55
2018-03-30T01:07:58.124Z,80.93
2018-03-30T01:08:58.121Z,80.77
2018-03-30T01:09:58.100Z,80.87
2018-03-30T01:10:58.083Z,80.64
2018-03-30T01:11:58.072Z,80.21
2018-03-30T01:12:58.060Z,80.11
2018-03-30T01:13:58.045Z,80.93
2018-03-30T01:14:58.035Z,80.64
2018-03-30T01:15:58.024Z,80.64
2018-03-30T01:16:58.016Z,80.26
2018-03-30T01:17:58.003Z,80.30
2018-03-30T01:18:57.993Z,79.98
2018-03-30T01:19:57.980Z,80.36
2018-03-30T01:20:57.965Z,80.74
2018-03-30T01:21:57.956Z,80.64
2018-03-30T01:22:57.945Z,80.64
2018-03-30T01:23:57.931Z,80.55
2018-03-30T01:24:57.915Z,80.83
2018-03-30T01:25:57.909Z,80.83
2018-03-30T01:26:57.892Z,80.55
2018-03-30T01:27:57.883Z,80.64
2018-03-30T01:28:57.870Z,81.12
2018-03-30T01:29:57.860Z,80.93
2018-03-30T01:30:57.849Z,81.02
2018-03-30T01:31:57.834Z,80.74
2018-03-30T01:32:57.819Z,80.93
2018-03-30T01:33:57.810Z,81.30
2018-03-30T01:34:57.805Z,81.12
2018-03-30T01:35:57.793Z,81.40
2018-03-30T01:36:57.776Z,81.49
2018-03-30T01:37:57.762Z,81.02
2018-03-30T01:38:57.748Z,81.49
2018-03-30T01:39:57.736Z,81.30
2018-03-30T01:40:57.726Z,81.49
2018-03-30T01:41:57.716Z,81.44
2018-03-30T01:42:57.701Z,81.92
2018-03-30T01:43:57.690Z,81.92
2018-03-30T01:44:57.702Z,81.21
2018-03-30T01:45:57.684Z,81.40
2018-03-30T01:46:57.659Z,81.49
2018-03-30T01:47:57.660Z,81.40
2018-03-30T01:48:57.648Z,81.40
2018-03-30T01:49:57.633Z,81.30
2018-03-30T01:50:57.613Z,81.30
2018-03-30T01:51:57.599Z,81.40
2018-03-30T01:52:57.594Z,81.30
2018-03-30T01:53:57.580Z,81.68
2018-03-30T01:54:57.567Z,81.49
2018-03-30T01:55:57.551Z,81.96
2018-03-30T01:56:57.553Z,81.49
2018-03-30T01:57:57.549Z,82.34
2018-03-30T01:58:57.578Z,81.59
2018-03-30T01:59:57.518Z,82.01
2018-03-30T02:00:57.494Z,81.68
2018-03-30T02:01:57.496Z,81.44
2018-03-30T02:02:57.468Z,82.34
2018-03-30T02:03:57.456Z,82.20
2018-03-30T02:04:57.448Z,82.72
2018-03-30T02:05:57.437Z,81.96
2018-03-30T02:06:57.423Z,81.92
2018-03-30T02:07:57.416Z,81.82
2018-03-30T02:08:57.397Z,82.15
2018-03-30T02:09:57.396Z,82.57
2018-03-30T02:10:57.374Z,82.72
2018-03-30T02:11:57.377Z,82.76
2018-03-30T02:12:57.363Z,82.48
2018-03-30T02:13:57.339Z,82.57
2018-03-30T02:14:57.326Z,82.67
2018-03-30T02:15:57.381Z,82.57
2018-03-30T02:16:57.303Z,82.53
2018-03-30T02:17:57.293Z,82.44
2018-03-30T02:18:57.283Z,82.67
2018-03-30T02:19:57.278Z,82.15
2018-03-30T02:20:57.267Z,82.34
2018-03-30T02:21:57.256Z,82.95
2018-03-30T02:22:57.230Z,82.57
2018-03-30T02:23:57.233Z,82.57
2018-03-30T02:24:57.218Z,82.53
2018-03-30T02:25:57.207Z,82.67
2018-03-30T02:26:57.185Z,82.39
2018-03-30T02:27:57.173Z,82.86
2018-03-30T02:28:57.159Z,82.76
2018-03-30T02:29:57.162Z,82.67
2018-03-30T02:30:57.148Z,82.67
2018-03-30T02:31:57.125Z,82.39
2018-03-30T02:32:57.115Z,82.86
2018-03-30T02:33:57.100Z,82.76
2018-03-30T02:34:57.087Z,82.39
2018-03-30T02:35:57.078Z,82.67
2018-03-30T02:36:57.064Z,82.95
2018-03-30T02:37:57.066Z,82.48
2018-03-30T02:38:57.094Z,82.29
2018-03-30T02:39:57.026Z,82.57
2018-03-30T02:40:57.019Z,82.76
2018-03-30T02:41:57.018Z,82.76
2018-03-30T02:42:57.009Z,82.76
2018-03-30T02:43:56.979Z,83.05
2018-03-30T02:44:56.972Z,82.10
2018-03-30T02:45:56.964Z,82.76
2018-03-30T02:46:56.948Z,83.14
2018-03-30T02:47:56.937Z,82.76
2018-03-30T02:48:56.934Z,82.67
2018-03-30T02:49:56.910Z,82.86
2018-03-30T02:50:56.900Z,83.14
2018-03-30T02:51:56.900Z,83.05
2018-03-30T02:52:56.872Z,82.86
2018-03-30T02:53:56.861Z,82.67
2018-03-30T02:54:56.861Z,82.95
2018-03-30T02:55:56.860Z,83.14
2018-03-30T02:56:56.829Z,82.95
2018-03-30T02:57:56.816Z,82.95
2018-03-30T02:58:56.809Z,83.05
2018-03-30T02:59:56.790Z,82.76
2018-03-30T03:00:56.786Z,82.86
2018-03-30T03:01:56.802Z,82.95
2018-03-30T03:02:56.757Z,83.81
2018-03-30T03:03:56.750Z,83.05
2018-03-30T03:04:56.733Z,83.24
2018-03-30T03:05:56.734Z,83.05
2018-03-30T03:06:56.712Z,83.14
2018-03-30T03:07:56.700Z,83.05
2018-03-30T03:08:56.702Z,83.14
2018-03-30T03:09:56.680Z,83.52
2018-03-30T03:10:56.663Z,83.05
2018-03-30T03:11:56.650Z,83.52
2018-03-30T03:12:56.637Z,83.33
2018-03-30T03:13:56.639Z,83.43
2018-03-30T03:14:56.620Z,83.52
2018-03-30T03:15:56.618Z,83.43
2018-03-30T03:16:56.594Z,83.14
2018-03-30T03:17:56.582Z,83.24
2018-03-30T03:18:56.570Z,83.33
2018-03-30T03:19:56.563Z,82.95
2018-03-30T03:20:56.544Z,83.14
2018-03-30T03:21:56.557Z,83.05
2018-03-30T03:22:56.532Z,83.24
2018-03-30T03:23:56.523Z,83.14
2018-03-30T03:24:56.520Z,83.05
2018-03-30T03:25:56.490Z,82.86
2018-03-30T03:26:56.477Z,82.67
2018-03-30T03:27:56.474Z,83.05
2018-03-30T03:28:56.452Z,83.14
2018-03-30T03:29:56.453Z,83.24
2018-03-30T03:30:56.431Z,82.86
2018-03-30T03:31:56.427Z,82.86
2018-03-30T03:32:56.419Z,82.86
2018-03-30T03:33:56.396Z,83.24
2018-03-30T03:34:56.393Z,83.05
2018-03-30T03:35:56.368Z,83.05
2018-03-30T03:36:56.360Z,83.05
2018-03-30T03:37:56.359Z,82.95
2018-03-30T03:38:56.354Z,82.95
2018-03-30T03:39:56.323Z,83.52
2018-03-30T03:40:56.310Z,83.14
2018-03-30T03:41:56.312Z,83.14
2018-03-30T03:42:56.287Z,83.24
2018-03-30T03:43:56.287Z,83.14
2018-03-30T03:44:56.264Z,83.24
2018-03-30T03:45:56.265Z,82.86
2018-03-30T03:46:56.246Z,83.05
2018-03-30T03:47:56.230Z,82.48
2018-03-30T03:48:56.222Z,82.86
2018-03-30T03:49:56.227Z,83.05
2018-03-30T03:50:56.194Z,82.95
2018-03-30T03:51:56.185Z,82.76
2018-03-30T03:52:56.173Z,83.43
2018-03-30T03:53:56.165Z,83.33
2018-03-30T03:54:56.159Z,83.33
2018-03-30T03:55:56.149Z,83.43
2018-03-30T03:56:56.127Z,83.14
2018-03-30T03:57:56.124Z,82.86
2018-03-30T03:58:56.104Z,83.43
2018-03-30T03:59:56.091Z,83.52
2018-03-30T04:00:56.078Z,83.24
2018-03-30T04:01:56.065Z,83.05
2018-03-30T04:02:56.066Z,82.95
2018-03-30T04:03:56.061Z,83.33
2018-03-30T04:04:56.031Z,83.14
2018-03-30T04:05:56.020Z,83.05
2018-03-30T04:06:56.006Z,83.05
2018-03-30T04:07:56.006Z,82.95
2018-03-30T04:08:55.983Z,82.95
2018-03-30T04:09:55.975Z,83.43
2018-03-30T04:10:55.973Z,83.14
2018-03-30T04:11:55.969Z,83.05
2018-03-30T04:12:55.952Z,83.14
2018-03-30T04:13:55.926Z,82.95
2018-03-30T04:14:55.933Z,83.14
2018-03-30T04:15:55.913Z,83.14
2018-03-30T04:16:55.895Z,83.43
2018-03-30T04:17:55.897Z,83.05
2018-03-30T04:18:55.868Z,82.76
2018-03-30T04:19:55.868Z,83.14
2018-03-30T04:20:55.848Z,83.14
2018-03-30T04:21:55.846Z,82.95
2018-03-30T04:22:55.820Z,83.71
2018-03-30T04:23:55.805Z,82.95
2018-03-30T04:24:55.807Z,83.62
2018-03-30T04:25:55.781Z,83.81
2018-03-30T04:26:55.775Z,83.05
2018-03-30T04:27:55.771Z,83.14
2018-03-30T04:28:55.750Z,83.05
2018-03-30T04:29:55.749Z,83.14
2018-03-30T04:30:55.724Z,82.95
2018-03-30T04:31:55.779Z,82.76
2018-03-30T04:32:55.701Z,83.62
2018-03-30T04:33:55.700Z,83.05
2018-03-30T04:34:55.691Z,83.71
2018-03-30T04:35:55.666Z,82.86
2018-03-30T04:36:55.666Z,83.81
2018-03-30T04:37:55.645Z,83.52
2018-03-30T04:38:55.641Z,83.62
2018-03-30T04:39:55.619Z,83.52
2018-03-30T04:40:55.626Z,83.81
2018-03-30T04:41:55.612Z,83.52
2018-03-30T04:42:55.594Z,83.81
2018-03-30T04:43:55.596Z,83.52
2018-03-30T04:44:55.561Z,83.90
2018-03-30T04:45:55.552Z,83.62
2018-03-30T04:46:55.553Z,83.52
2018-03-30T04:47:55.524Z,83.14
2018-03-30T04:48:55.526Z,83.43
2018-03-30T04:49:55.499Z,83.43
2018-03-30T04:50:55.504Z,82.76
2018-03-30T04:51:55.482Z,83.05
2018-03-30T04:52:55.465Z,83.90
2018-03-30T04:53:55.456Z,83.81
2018-03-30T04:54:55.466Z,83.52
2018-03-30T04:55:55.430Z,83.71
2018-03-30T04:56:55.421Z,83.52
2018-03-30T04:57:55.416Z,83.24
2018-03-30T04:58:55.394Z,83.52
2018-03-30T04:59:55.381Z,83.33
2018-03-30T05:00:55.389Z,83.52
2018-03-30T05:01:55.362Z,83.62
2018-03-30T05:02:55.365Z,83.33
2018-03-30T05:03:55.335Z,83.33
2018-03-30T05:04:55.326Z,83.43
2018-03-30T05:05:55.313Z,84.19
2018-03-30T05:06:55.302Z,83.62
2018-03-30T05:07:55.291Z,83.81
2018-03-30T05:08:55.289Z,83.52
2018-03-30T05:09:55.266Z,83.62
2018-03-30T05:10:55.256Z,83.71
2018-03-30T05:11:55.242Z,83.71
2018-03-30T05:12:55.233Z,83.90
2018-03-30T05:13:55.219Z,84.19
2018-03-30T05:14:55.207Z,84.00
2018-03-30T05:15:55.194Z,83.43
2018-03-30T05:16:55.187Z,83.81
2018-03-30T05:17:55.186Z,84.00
2018-03-30T05:18:55.158Z,84.09
2018-03-30T05:19:55.161Z,84.23
2018-03-30T05:20:55.135Z,84.23
2018-03-30T05:21:55.125Z,83.47
2018-03-30T05:22:55.118Z,83.47
2018-03-30T05:23:55.113Z,84.23
2018-03-30T05:24:55.103Z,84.61
2018-03-30T05:25:55.094Z,84.04
2018-03-30T05:26:55.094Z,84.04
2018-03-30T05:27:55.054Z,84.04
2018-03-30T05:28:55.072Z,83.94
2018-03-30T05:29:55.034Z,84.70
2018-03-30T05:30:55.038Z,83.47
2018-03-30T05:31:55.007Z,84.04
2018-03-30T05:32:54.995Z,82.01
2018-03-30T05:33:54.995Z,83.00
2018-03-30T05:34:54.974Z,83.43
2018-03-30T05:35:54.960Z,82.52
2018-03-30T05:36:54.966Z,82.05
2018-03-30T05:37:54.939Z,83.09
2018-03-30T05:38:54.937Z,82.52
2018-03-30T05:39:54.919Z,83.14
2018-03-30T05:40:54.907Z,82.90
2018-03-30T05:41:54.892Z,83.43
2018-03-30T05:42:54.879Z,83.62
2018-03-30T05:43:54.881Z,83.47
2018-03-30T05:44:54.859Z,84.32
2018-03-30T05:45:54.856Z,83.00
2018-03-30T05:46:54.836Z,83.37
2018-03-30T05:47:54.833Z,83.85
2018-03-30T05:48:54.810Z,83.00
2018-03-30T05:49:54.798Z,83.47
2018-03-30T05:50:54.819Z,83.75
2018-03-30T05:51:54.785Z,83.66
2018-03-30T05:52:54.768Z,83.56
2018-03-30T05:53:54.754Z,83.56
2018-03-30T05:54:54.761Z,83.47
2018-03-30T05:55:54.730Z,84.23
2018-03-30T05:56:54.729Z,84.13
2018-03-30T05:57:54.733Z,83.94
2018-03-30T05:58:54.708Z,84.13
2018-03-30T05:59:54.683Z,83.75
2018-03-30T06:00:54.684Z,83.28
2018-03-30T06:01:54.664Z,83.66
2018-03-30T06:02:54.650Z,83.75
2018-03-30T06:03:54.654Z,83.94
2018-03-30T06:04:54.635Z,83.66
2018-03-30T06:05:54.619Z,84.13
2018-03-30T06:06:54.610Z,83.66
2018-03-30T06:07:54.595Z,84.04
2018-03-30T06:08:54.601Z,84.13
2018-03-30T06:09:54.579Z,84.23
2018-03-30T06:10:54.564Z,84.13
2018-03-30T06:11:54.558Z,84.13
2018-03-30T06:12:54.540Z,83.75
2018-03-30T06:13:54.535Z,83.75
2018-03-30T06:14:54.520Z,83.85
2018-03-30T06:15:54.510Z,83.85
2018-03-30T06:16:54.500Z,83.85
2018-03-30T06:17:54.501Z,83.94
2018-03-30T06:18:54.478Z,83.75
2018-03-30T06:19:54.465Z,84.51
2018-03-30T06:20:54.459Z,84.04
2018-03-30T06:21:54.457Z,84.42
2018-03-30T06:22:54.433Z,83.85
2018-03-30T06:23:54.432Z,83.89
2018-03-30T06:24:54.422Z,84.55
2018-03-30T06:25:54.405Z,83.80
2018-03-30T06:26:54.400Z,83.23
2018-03-30T06:27:54.378Z,83.70
2018-03-30T06:28:54.380Z,83.70
2018-03-30T06:29:54.361Z,83.89
2018-03-30T06:30:54.349Z,83.42
2018-03-30T06:31:54.336Z,83.51
2018-03-30T06:32:54.324Z,83.23
2018-03-30T06:33:54.315Z,83.42
2018-03-30T06:34:54.303Z,83.51
2018-03-30T06:35:54.290Z,84.27
2018-03-30T06:36:54.282Z,83.70
2018-03-30T06:37:54.273Z,83.51
2018-03-30T06:38:54.278Z,83.89
2018-03-30T06:39:54.272Z,82.75
2018-03-30T06:40:54.244Z,83.89
2018-03-30T06:41:54.228Z,83.61
2018-03-30T06:42:54.220Z,83.32
2018-03-30T06:43:54.213Z,83.80
2018-03-30T06:44:54.214Z,83.32
2018-03-30T06:45:54.188Z,83.04
2018-03-30T06:46:54.178Z,82.94
2018-03-30T06:47:54.168Z,83.61
2018-03-30T06:48:54.157Z,83.23
2018-03-30T06:49:54.187Z,83.04
2018-03-30T06:50:54.145Z,83.65
2018-03-30T06:51:54.135Z,82.70
2018-03-30T06:52:54.128Z,82.79
2018-03-30T06:53:54.133Z,82.79
2018-03-30T06:54:54.104Z,82.32
2018-03-30T06:55:54.101Z,81.94
2018-03-30T06:56:54.072Z,81.85
2018-03-30T06:57:54.070Z,82.32
2018-03-30T06:58:54.053Z,82.13
2018-03-30T06:59:54.055Z,82.32
2018-03-30T07:00:54.045Z,82.23
2018-03-30T07:01:54.048Z,81.66
2018-03-30T07:02:54.028Z,82.51
2018-03-30T07:03:54.000Z,82.42
2018-03-30T07:04:54.006Z,81.75
2018-03-30T07:05:53.985Z,82.23
2018-03-30T07:06:53.980Z,81.56
2018-03-30T07:07:53.961Z,81.75
2018-03-30T07:08:53.962Z,82.32
2018-03-30T07:09:53.943Z,82.13
2018-03-30T07:10:53.941Z,81.94
2018-03-30T07:11:53.920Z,82.42
2018-03-30T07:12:53.908Z,82.51
2018-03-30T07:13:53.912Z,82.32
2018-03-30T07:14:53.905Z,82.23
2018-03-30T07:15:53.882Z,82.42
2018-03-30T07:16:53.921Z,81.85
2018-03-30T07:17:53.870Z,81.75
2018-03-30T07:18:53.847Z,81.37
2018-03-30T07:19:53.836Z,82.60
2018-03-30T07:20:53.828Z,82.23
2018-03-30T07:21:53.851Z,82.32
2018-03-30T07:22:53.810Z,81.47
2018-03-30T07:23:53.796Z,82.51
2018-03-30T07:24:53.799Z,82.32
2018-03-30T07:25:53.783Z,82.98
2018-03-30T07:26:53.778Z,82.98
2018-03-30T07:27:53.768Z,82.23
2018-03-30T07:28:53.808Z,82.23
2018-03-30T07:29:53.738Z,81.66
2018-03-30T07:30:53.739Z,82.32
2018-03-30T07:31:53.733Z,82.23
2018-03-30T07:32:53.707Z,81.94
2018-03-30T07:33:53.698Z,82.51
2018-03-30T07:34:53.688Z,82.42
2018-03-30T07:35:53.718Z,81.56
2018-03-30T07:36:53.673Z,82.70
2018-03-30T07:37:53.659Z,82.32
2018-03-30T07:38:53.664Z,81.60
2018-03-30T07:39:53.652Z,80.94
2018-03-30T07:40:53.630Z,81.13
2018-03-30T07:41:53.637Z,81.13
2018-03-30T07:42:53.607Z,81.51
2018-03-30T07:43:53.602Z,81.36
2018-03-30T07:44:53.603Z,81.36
2018-03-30T07:45:53.605Z,80.69
2018-03-30T07:46:53.577Z,80.88
2018-03-30T07:47:53.566Z,80.88
2018-03-30T07:48:53.566Z,78.17
2018-03-30T07:49:53.548Z,79.12
2018-03-30T07:50:53.537Z,78.08
2018-03-30T07:51:53.542Z,78.08
2018-03-30T07:52:53.531Z,76.27
2018-03-30T07:53:53.525Z,78.08
2018-03-30T07:54:53.505Z,77.03
2018-03-30T07:55:53.507Z,78.83
2018-03-30T07:56:53.486Z,76.27
2018-03-30T07:57:53.483Z,77.79
2018-03-30T07:58:53.473Z,75.79
2018-03-30T07:59:53.463Z,76.69
2018-03-30T08:00:53.462Z,76.78
2018-03-30T08:01:53.461Z,75.74
2018-03-30T08:02:53.452Z,78.25
2018-03-30T08:03:53.450Z,74.73
2018-03-30T08:04:53.445Z,79.14
2018-03-30T08:05:53.430Z,77.81
2018-03-30T08:06:53.411Z,80.04
2018-03-30T08:07:53.403Z,78.99
2018-03-30T08:08:53.409Z,76.39
2018-03-30T08:09:53.402Z,74.48
2018-03-30T08:10:53.384Z,75.78
2018-03-30T08:11:53.375Z,75.21
2018-03-30T08:12:53.384Z,73.59
2018-03-30T08:13:53.361Z,74.44
2018-03-30T08:14:53.356Z,74.92
2018-03-30T08:15:53.400Z,75.30
2018-03-30T08:16:53.350Z,75.78
2018-03-30T08:17:53.366Z,75.02
2018-03-30T08:18:53.334Z,75.30
2018-03-30T08:19:53.331Z,74.79
2018-03-30T08:20:53.310Z,73.74
2018-03-30T08:21:53.303Z,74.03
2018-03-30T08:22:53.306Z,73.55
2018-03-30T08:23:53.299Z,78.72
2018-03-30T08:24:53.289Z,75.64
2018-03-30T08:25:53.284Z,74.69
2018-03-30T08:26:53.277Z,74.60
2018-03-30T08:27:53.271Z,76.88
2018-03-30T08:28:53.265Z,74.41
2018-03-30T08:29:53.275Z,74.69
2018-03-30T08:30:53.235Z,74.79
2018-03-30T08:31:53.238Z,75.26
2018-03-30T08:32:53.280Z,74.66
2018-03-30T08:33:53.211Z,75.07
2018-03-30T08:34:53.203Z,76.21
2018-03-30T08:35:53.208Z,75.17
2018-03-30T08:36:53.216Z,75.74
2018-03-30T08:37:53.199Z,75.55
2018-03-30T08:38:53.192Z,75.36
2018-03-30T08:39:53.211Z,75.36
2018-03-30T08:40:53.169Z,75.45
2018-03-30T08:41:53.186Z,76.12
2018-03-30T08:42:53.152Z,74.69
2018-03-30T08:43:53.133Z,75.36
2018-03-30T08:44:53.122Z,76.59
2018-03-30T08:45:53.128Z,75.64
2018-03-30T08:46:53.109Z,76.82
2018-03-30T08:47:53.114Z,77.39
2018-03-30T08:48:53.124Z,76.06
2018-03-30T08:49:53.087Z,75.87
2018-03-30T08:50:53.076Z,74.92
2018-03-30T08:51:53.113Z,74.92
2018-03-30T08:52:53.085Z,74.35
2018-03-30T08:53:53.084Z,73.40
2018-03-30T08:54:53.056Z,75.49
2018-03-30T08:55:53.048Z,75.30
2018-03-30T08:56:53.043Z,75.49
2018-03-30T08:57:53.021Z,75.30
2018-03-30T08:58:53.029Z,75.34
2018-03-30T08:59:53.005Z,75.30
2018-03-30T09:00:52.999Z,74.16
2018-03-30T09:01:52.990Z,75.43
2018-03-30T09:02:52.995Z,73.53
2018-03-30T09:03:52.976Z,76.29
2018-03-30T09:04:52.984Z,72.67
2018-03-30T09:05:52.991Z,74.58
2018-03-30T09:06:52.985Z,77.72
2018-03-30T09:07:52.948Z,74.58
2018-03-30T09:08:52.951Z,73.91
2018-03-30T09:09:52.947Z,75.72
2018-03-30T09:10:52.982Z,77.15
2018-03-30T09:11:52.930Z,76.01
2018-03-30T09:12:52.910Z,74.77
2018-03-30T09:13:52.904Z,74.48
2018-03-30T09:14:52.919Z,75.81
2018-03-30T09:15:52.890Z,74.67
2018-03-30T09:16:52.881Z,70.39
2018-03-30T09:17:52.887Z,74.77
2018-03-30T09:18:52.878Z,75.47
2018-03-30T09:19:52.872Z,70.52
2018-03-30T09:20:52.863Z,77.85
2018-03-30T09:21:52.851Z,78.85
2018-03-30T09:22:52.839Z,78.85
2018-03-30T09:23:52.842Z,78.08
2018-03-30T09:24:52.830Z,76.98
2018-03-30T09:25:52.834Z,75.45
2018-03-30T09:26:52.818Z,77.49
2018-03-30T09:27:52.812Z,80.20
2018-03-30T09:28:52.801Z,78.49
2018-03-30T09:29:52.807Z,74.10
2018-03-30T09:30:52.790Z,78.30
2018-03-30T09:31:52.797Z,76.44
2018-03-30T09:32:52.780Z,78.06
2018-03-30T09:33:52.786Z,77.11
2018-03-30T09:34:52.773Z,76.73
2018-03-30T09:35:52.763Z,76.44
2018-03-30T09:36:52.762Z,74.25
2018-03-30T09:37:52.766Z,80.16
2018-03-30T09:38:52.808Z,75.87
2018-03-30T09:39:52.763Z,79.78
2018-03-30T09:40:52.752Z,73.96
2018-03-30T09:41:52.737Z,77.69
2018-03-30T09:42:52.729Z,77.20
2018-03-30T09:43:52.726Z,70.15
2018-03-30T09:44:52.720Z,81.73
2018-03-30T09:45:52.715Z,81.25
2018-03-30T09:46:52.727Z,74.01
2018-03-30T09:47:52.716Z,79.72
2018-03-30T09:48:52.711Z,77.00
2018-03-30T09:49:52.706Z,74.71
2018-03-30T09:50:52.702Z,77.03
2018-03-30T09:51:52.686Z,74.88
2018-03-30T09:52:52.748Z,71.76
2018-03-30T09:53:52.676Z,68.90
2018-03-30T09:54:52.685Z,69.56
2018-03-30T09:55:52.678Z,69.79
2018-03-30T09:56:52.691Z,68.64
2018-03-30T09:57:52.667Z,72.18
2018-03-30T09:58:52.669Z,80.88
2018-03-30T09:59:52.674Z,73.99
2018-03-30T10:00:52.659Z,73.08
2018-03-30T10:03:25.390Z,72.02
2018-03-30T10:04:25.075Z,68.33
2018-03-30T10:06:19.048Z,69.73
2018-03-30T10:07:18.662Z,69.82
2018-03-30T10:09:12.717Z,65.04
2018-03-30T10:10:12.472Z,66.96
2018-03-30T10:12:06.984Z,70.81
2018-03-30T10:13:06.068Z,68.13
2018-03-30T10:15:21.592Z,69.89
